Time;durP1;ratioP1;P1;durP2;ratioP2;P2;SDS_P1;SDS_P2;PMS_P1;PMS_P2;Temp;Humidity;BMP_temperature;BMP_pressure;BME280_temperature;BME280_humidity;BME280_pressure;Samples;Min_cycle;Max_cycle;Signal;HPM_P1;HPM_P2
2021/09/08 00:00:53;;;;;;;9.70;8.80;;;25.00;50.10;;;;;;5013060;28;20208;-46
2021/09/08 00:03:18;;;;;;;9.83;8.93;;;25.00;50.00;;;;;;5003968;28;20672;-45
2021/09/08 00:05:44;;;;;;;10.03;9.03;;;25.00;50.10;;;;;;5009477;28;20194;-45
2021/09/08 00:08:10;;;;;;;9.90;9.00;;;25.00;50.10;;;;;;5011302;28;20197;-47
2021/09/08 00:10:35;;;;;;;10.80;9.60;;;25.00;50.10;;;;;;5009634;28;20654;-51
2021/09/08 00:13:01;;;;;;;11.37;9.23;;;25.00;50.20;;;;;;5010628;28;20229;-46
2021/09/08 00:15:27;;;;;;;11.23;10.10;;;25.00;50.10;;;;;;5011791;28;20312;-50
2021/09/08 00:17:52;;;;;;;10.17;9.27;;;25.00;50.00;;;;;;5011317;28;20621;-46
2021/09/08 00:20:18;;;;;;;12.53;9.60;;;24.90;50.00;;;;;;5010945;28;20248;-46
2021/09/08 00:22:45;;;;;;;9.47;8.63;;;24.90;50.10;;;;;;5012017;28;20186;-47
2021/09/08 00:25:12;;;;;;;9.40;8.50;;;24.80;50.20;;;;;;5011097;28;20658;-45
2021/09/08 00:27:38;;;;;;;11.40;9.30;;;24.80;50.40;;;;;;5011199;28;20444;-49
2021/09/08 00:30:05;;;;;;;9.20;8.30;;;24.80;50.30;;;;;;5011409;28;21030;-46
2021/09/08 00:32:30;;;;;;;10.73;9.70;;;24.80;50.30;;;;;;5010262;28;20244;-45
2021/09/08 00:34:56;;;;;;;9.33;8.30;;;24.80;50.10;;;;;;5012093;28;20440;-48
2021/09/08 00:37:21;;;;;;;9.60;8.70;;;24.80;50.20;;;;;;5008677;28;20198;-50
2021/09/08 00:39:47;;;;;;;10.80;9.80;;;24.80;50.40;;;;;;5010845;28;20221;-47
2021/09/08 00:42:14;;;;;;;10.40;9.50;;;24.70;50.10;;;;;;5011038;28;20194;-51
2021/09/08 00:44:40;;;;;;;10.33;9.43;;;24.70;50.40;;;;;;5011305;28;20586;-46
2021/09/08 00:47:06;;;;;;;9.90;8.90;;;24.60;50.60;;;;;;5013549;28;20473;-48
2021/09/08 00:49:32;;;;;;;11.20;10.00;;;24.60;50.50;;;;;;5009990;28;20429;-47
2021/09/08 00:52:04;;;;;;;10.33;9.43;;;24.60;50.70;;;;;;5010984;28;20222;-46
2021/09/08 00:54:30;;;;;;;9.77;8.97;;;24.50;50.70;;;;;;5009982;28;20317;-48
2021/09/08 00:56:58;;;;;;;10.47;9.47;;;24.50;50.60;;;;;;5011403;28;20511;-47
2021/09/08 00:59:24;;;;;;;9.67;8.73;;;24.50;50.80;;;;;;5005869;28;20468;-50
2021/09/08 01:01:49;;;;;;;11.37;10.37;;;24.50;50.70;;;;;;5005117;28;20441;-48
2021/09/08 01:04:15;;;;;;;9.30;8.40;;;24.50;50.40;;;;;;5006377;28;20194;-46
2021/09/08 01:06:41;;;;;;;10.07;9.10;;;24.50;50.70;;;;;;5010665;28;20699;-45
2021/09/08 01:09:08;;;;;;;10.00;9.03;;;24.40;50.90;;;;;;5008772;28;21168;-51
2021/09/08 01:11:34;;;;;;;11.20;8.63;;;24.40;50.80;;;;;;5011196;28;20496;-47
2021/09/08 01:14:01;;;;;;;9.80;8.80;;;24.40;50.70;;;;;;5009790;28;20475;-48
2021/09/08 01:16:27;;;;;;;10.77;9.67;;;24.40;50.70;;;;;;5009953;28;20928;-46
2021/09/08 01:18:53;;;;;;;12.07;9.40;;;24.40;50.80;;;;;;5010243;28;20436;-48
2021/09/08 01:21:19;;;;;;;9.73;8.90;;;24.40;50.70;;;;;;5011975;28;20206;-50
2021/09/08 01:23:45;;;;;;;10.53;9.53;;;24.50;50.70;;;;;;5009203;28;20508;-48
2021/09/08 01:26:11;;;;;;;11.13;8.60;;;24.50;50.80;;;;;;5007796;28;20515;-49
2021/09/08 01:28:37;;;;;;;10.33;9.33;;;24.40;50.80;;;;;;5011162;28;20197;-45
2021/09/08 01:31:03;;;;;;;12.47;10.70;;;24.40;50.80;;;;;;5009390;28;20757;-48
2021/09/08 01:33:29;;;;;;;10.80;9.33;;;24.40;50.70;;;;;;5009455;28;20878;-48
2021/09/08 01:35:54;;;;;;;11.63;10.57;;;24.40;50.40;;;;;;5011062;28;20425;-46
2021/09/08 01:38:20;;;;;;;12.63;10.07;;;24.50;49.90;;;;;;5008713;28;20205;-49
2021/09/08 01:40:46;;;;;;;12.60;10.70;;;24.50;49.80;;;;;;5011654;28;20271;-50
2021/09/08 01:43:11;;;;;;;11.93;9.53;;;24.40;49.80;;;;;;5009045;28;20571;-49
2021/09/08 01:45:41;;;;;;;10.60;9.30;;;24.30;50.00;;;;;;5011210;28;20197;-46
2021/09/08 01:48:08;;;;;;;11.93;10.70;;;24.20;50.30;;;;;;5008628;28;20612;-46
2021/09/08 01:50:34;;;;;;;10.97;9.97;;;24.10;50.10;;;;;;5007740;28;20485;-49
2021/09/08 01:52:59;;;;;;;10.90;9.87;;;24.10;50.30;;;;;;5009259;28;20441;-50
2021/09/08 01:55:25;;;;;;;10.73;9.57;;;24.00;50.50;;;;;;5009855;28;20248;-46
2021/09/08 01:57:51;;;;;;;13.37;10.77;;;23.90;50.80;;;;;;5006919;28;20663;-51
2021/09/08 02:00:16;;;;;;;9.87;8.97;;;23.80;50.80;;;;;;5009605;28;20205;-48
2021/09/08 02:02:43;;;;;;;11.03;10.07;;;23.70;51.00;;;;;;5009137;28;20217;-51
2021/09/08 02:05:09;;;;;;;11.33;10.20;;;23.50;51.20;;;;;;5010442;28;20205;-49
2021/09/08 02:07:35;;;;;;;11.93;10.73;;;23.50;51.50;;;;;;5009391;28;20445;-51
2021/09/08 02:10:01;;;;;;;12.60;11.40;;;23.50;51.50;;;;;;5009802;28;20432;-51
2021/09/08 02:12:26;;;;;;;10.70;9.70;;;23.40;51.50;;;;;;5008630;28;20201;-46
2021/09/08 02:14:52;;;;;;;10.10;9.20;;;23.30;51.70;;;;;;5009676;28;20201;-46
2021/09/08 02:17:18;;;;;;;14.17;11.27;;;23.30;51.80;;;;;;5009313;28;20701;-47
2021/09/08 02:19:43;;;;;;;11.27;10.10;;;23.30;51.70;;;;;;5010501;28;20193;-48
2021/09/08 02:22:09;;;;;;;10.70;9.80;;;23.30;51.40;;;;;;5009233;28;20206;-50
2021/09/08 02:24:34;;;;;;;11.20;10.20;;;23.30;51.40;;;;;;5008813;28;20202;-45
2021/09/08 02:27:00;;;;;;;12.13;9.87;;;23.30;51.70;;;;;;5007336;28;20202;-45
2021/09/08 02:29:25;;;;;;;10.97;9.87;;;23.20;51.50;;;;;;5008126;28;20194;-48
2021/09/08 02:31:51;;;;;;;12.13;11.00;;;23.10;51.70;;;;;;5009281;28;20261;-52
2021/09/08 02:34:17;;;;;;;12.63;11.33;;;23.00;52.10;;;;;;5009308;28;20654;-50
2021/09/08 02:36:43;;;;;;;12.20;11.00;;;23.00;52.10;;;;;;5008419;28;20206;-46
2021/09/08 02:39:08;;;;;;;11.70;10.57;;;22.90;52.00;;;;;;5008842;28;20190;-46
2021/09/08 02:41:34;;;;;;;11.70;10.60;;;22.80;52.50;;;;;;5009767;28;20289;-51
2021/09/08 02:44:00;;;;;;;11.70;10.60;;;22.80;52.60;;;;;;5009094;28;20281;-52
2021/09/08 02:46:25;;;;;;;11.03;10.03;;;22.70;52.50;;;;;;5009882;28;20808;-48
2021/09/08 02:48:51;;;;;;;12.33;11.13;;;22.80;52.80;;;;;;5009064;28;20641;-47
2021/09/08 02:51:17;;;;;;;10.50;9.50;;;22.80;52.70;;;;;;5008731;28;20732;-51
2021/09/08 02:53:42;;;;;;;11.00;9.97;;;22.70;52.90;;;;;;5007813;28;20197;-52
2021/09/08 02:56:08;;;;;;;11.80;10.70;;;22.70;53.00;;;;;;5005973;28;20324;-49
2021/09/08 02:58:34;;;;;;;12.37;11.17;;;22.70;52.90;;;;;;5008886;28;20324;-51
2021/09/08 03:01:00;;;;;;;12.60;10.93;;;22.50;52.80;;;;;;5007856;28;20200;-51
2021/09/08 03:03:26;;;;;;;13.60;12.20;;;22.50;53.30;;;;;;5010632;28;20426;-50
2021/09/08 03:05:51;;;;;;;11.40;10.33;;;22.50;53.30;;;;;;5008511;28;20233;-49
2021/09/08 03:08:18;;;;;;;9.83;8.93;;;22.50;53.10;;;;;;5008087;28;20193;-50
2021/09/08 03:10:44;;;;;;;12.27;11.07;;;22.50;53.10;;;;;;5008641;28;20272;-48
2021/09/08 03:13:12;;;;;;;10.83;9.83;;;22.60;53.30;;;;;;5008947;28;20531;-51
2021/09/08 03:15:38;;;;;;;12.20;11.00;;;22.60;53.00;;;;;;5007842;28;20437;-51
2021/09/08 03:18:04;;;;;;;10.30;9.30;;;22.60;53.10;;;;;;5007797;28;20487;-51
2021/09/08 03:20:30;;;;;;;11.00;9.93;;;22.60;53.10;;;;;;5006727;28;20800;-48
2021/09/08 03:22:56;;;;;;;11.67;10.57;;;22.70;53.00;;;;;;5008095;28;20532;-48
2021/09/08 03:25:21;;;;;;;11.90;10.83;;;22.70;52.90;;;;;;5008729;28;20720;-46
2021/09/08 03:27:47;;;;;;;11.63;10.53;;;22.60;52.70;;;;;;5008473;28;20277;-46
2021/09/08 03:30:12;;;;;;;10.80;9.80;;;22.60;52.90;;;;;;5010443;28;20224;-47
2021/09/08 03:32:38;;;;;;;11.53;10.20;;;22.60;52.80;;;;;;5006967;28;20190;-46
2021/09/08 03:35:04;;;;;;;11.07;9.93;;;22.60;52.70;;;;;;5006176;28;20290;-45
2021/09/08 03:37:30;;;;;;;11.80;10.70;;;22.60;52.60;;;;;;5005011;28;20194;-46
2021/09/08 03:39:56;;;;;;;11.07;9.97;;;22.50;52.70;;;;;;5008359;28;20769;-46
2021/09/08 03:42:23;;;;;;;10.57;9.57;;;22.50;52.60;;;;;;5007610;28;20190;-45
2021/09/08 03:44:48;;;;;;;10.77;9.67;;;22.50;52.30;;;;;;5008596;28;20512;-49
2021/09/08 03:47:14;;;;;;;11.87;10.67;;;22.40;52.60;;;;;;5006779;28;20432;-47
2021/09/08 03:49:40;;;;;;;10.10;9.10;;;22.50;52.80;;;;;;5007783;28;20584;-49
2021/09/08 03:52:05;;;;;;;11.40;10.30;;;22.40;52.70;;;;;;5009279;28;20218;-46
2021/09/08 03:54:31;;;;;;;11.50;10.40;;;22.50;52.30;;;;;;5007455;28;20703;-46
2021/09/08 03:56:57;;;;;;;11.53;10.40;;;22.50;52.40;;;;;;5007865;28;20190;-47
2021/09/08 03:59:22;;;;;;;12.80;10.00;;;22.40;52.10;;;;;;5008226;28;20233;-46
2021/09/08 04:01:49;;;;;;;11.67;10.50;;;22.40;52.20;;;;;;5008923;28;20206;-47
2021/09/08 04:04:15;;;;;;;11.73;10.63;;;22.40;52.10;;;;;;5006247;28;20214;-45
2021/09/08 04:06:41;;;;;;;14.13;10.93;;;22.40;52.40;;;;;;5008352;28;20818;-47
2021/09/08 04:09:06;;;;;;;12.80;11.40;;;22.30;52.20;;;;;;5007275;28;20212;-45
2021/09/08 04:11:32;;;;;;;10.47;9.47;;;22.30;51.90;;;;;;5008043;28;20496;-46
2021/09/08 04:13:57;;;;;;;13.30;11.10;;;22.30;52.30;;;;;;5007917;28;20225;-45
2021/09/08 04:16:23;;;;;;;14.30;9.40;;;22.20;52.50;;;;;;5004984;28;20275;-46
2021/09/08 04:18:48;;;;;;;12.03;10.60;;;22.30;52.60;;;;;;5002903;28;20190;-46
2021/09/08 04:21:14;;;;;;;11.90;10.80;;;22.20;52.40;;;;;;5007601;28;20632;-46
2021/09/08 04:23:40;;;;;;;11.07;9.93;;;22.20;52.10;;;;;;5009163;28;20194;-48
2021/09/08 04:26:05;;;;;;;10.77;9.77;;;22.20;52.20;;;;;;5010693;28;20650;-48
2021/09/08 04:28:31;;;;;;;11.37;10.27;;;22.20;52.40;;;;;;5009732;28;20205;-45
2021/09/08 04:30:56;;;;;;;10.70;9.70;;;22.20;52.80;;;;;;5008876;28;20275;-46
2021/09/08 04:33:22;;;;;;;14.07;12.47;;;22.10;53.00;;;;;;5008288;28;20225;-45
2021/09/08 04:35:47;;;;;;;11.10;9.70;;;22.10;52.90;;;;;;5003767;28;20651;-45
2021/09/08 04:38:13;;;;;;;11.33;10.23;;;22.20;52.70;;;;;;5011013;28;20209;-47
2021/09/08 04:40:39;;;;;;;11.40;10.33;;;22.10;52.60;;;;;;5013796;28;20269;-46
2021/09/08 04:43:04;;;;;;;11.70;10.60;;;22.10;52.40;;;;;;5010102;28;20194;-46
2021/09/08 04:45:30;;;;;;;11.60;9.60;;;22.10;52.40;;;;;;5012554;28;20209;-46
2021/09/08 04:47:55;;;;;;;11.20;10.00;;;22.10;52.50;;;;;;5012860;28;20236;-45
2021/09/08 04:50:21;;;;;;;11.10;10.10;;;22.10;52.40;;;;;;5013093;28;20688;-45
2021/09/08 04:52:47;;;;;;;11.33;10.20;;;22.10;52.60;;;;;;5010532;28;20194;-45
2021/09/08 04:55:12;;;;;;;10.10;9.20;;;22.10;52.50;;;;;;5009323;28;20201;-49
2021/09/08 04:57:38;;;;;;;10.70;9.70;;;22.00;52.30;;;;;;5010216;28;20190;-46
2021/09/08 05:00:05;;;;;;;9.47;8.47;;;22.00;52.60;;;;;;5012811;28;20257;-48
2021/09/08 05:02:30;;;;;;;11.40;10.40;;;22.00;52.80;;;;;;5008783;28;20645;-48
2021/09/08 05:04:56;;;;;;;10.03;9.03;;;22.00;52.90;;;;;;5010977;28;20429;-45
2021/09/08 05:07:21;;;;;;;10.53;9.53;;;22.00;52.70;;;;;;5012024;28;20194;-46
2021/09/08 05:09:47;;;;;;;14.77;10.67;;;22.00;52.60;;;;;;5008484;28;20186;-46
2021/09/08 05:12:12;;;;;;;15.00;10.90;;;22.10;52.70;;;;;;5011783;28;20217;-46
2021/09/08 05:14:38;;;;;;;13.60;10.60;;;22.10;52.30;;;;;;5014074;28;20621;-45
2021/09/08 05:17:05;;;;;;;15.30;10.50;;;22.10;52.00;;;;;;5010183;28;20198;-44
2021/09/08 05:19:32;;;;;;;11.60;10.50;;;21.90;52.70;;;;;;5000022;28;20657;-45
2021/09/08 05:21:58;;;;;;;11.63;10.60;;;22.00;52.30;;;;;;5008709;28;20441;-45
2021/09/08 05:24:24;;;;;;;12.63;10.43;;;22.00;51.80;;;;;;5012235;28;20440;-46
2021/09/08 05:26:49;;;;;;;12.40;10.20;;;22.00;51.50;;;;;;5013312;28;20441;-45
2021/09/08 05:29:16;;;;;;;10.70;9.67;;;22.00;51.30;;;;;;5006444;28;20676;-45
2021/09/08 05:31:42;;;;;;;11.83;10.63;;;22.10;51.10;;;;;;5008186;28;20230;-46
2021/09/08 05:34:07;;;;;;;12.43;11.23;;;22.10;51.20;;;;;;5011136;28;20519;-45
2021/09/08 05:36:33;;;;;;;13.27;11.87;;;22.10;51.30;;;;;;5012144;28;20217;-47
2021/09/08 05:38:59;;;;;;;13.50;11.27;;;22.00;51.20;;;;;;5010831;28;20193;-45
2021/09/08 05:41:25;;;;;;;11.03;9.97;;;22.00;51.10;;;;;;5012905;28;20472;-46
2021/09/08 05:43:50;;;;;;;11.53;10.33;;;22.00;51.10;;;;;;5010371;28;20214;-44
2021/09/08 05:46:16;;;;;;;11.57;10.47;;;22.00;51.10;;;;;;5008124;28;20385;-46
2021/09/08 05:48:42;;;;;;;11.57;10.57;;;22.00;50.90;;;;;;5005728;28;20186;-46
2021/09/08 05:51:07;;;;;;;11.27;10.17;;;22.00;51.00;;;;;;5009447;28;20235;-45
2021/09/08 05:53:33;;;;;;;11.67;10.57;;;22.00;51.00;;;;;;5009262;28;20701;-45
2021/09/08 05:55:58;;;;;;;15.13;11.63;;;22.00;50.90;;;;;;5009146;28;20205;-45
2021/09/08 05:58:24;;;;;;;11.33;10.13;;;22.00;50.90;;;;;;5011841;28;20268;-48
2021/09/08 06:00:51;;;;;;;11.80;9.93;;;22.00;50.90;;;;;;5011783;28;20202;-47
2021/09/08 06:03:16;;;;;;;12.60;10.80;;;22.00;50.80;;;;;;5011782;28;20318;-48
2021/09/08 06:05:42;;;;;;;10.37;9.37;;;22.10;50.80;;;;;;5005349;28;20516;-47
2021/09/08 06:08:08;;;;;;;11.67;10.00;;;22.10;50.70;;;;;;5011704;28;20198;-46
2021/09/08 06:10:33;;;;;;;11.20;10.10;;;22.10;50.60;;;;;;5012512;28;20776;-47
2021/09/08 06:12:59;;;;;;;15.47;10.60;;;22.20;50.70;;;;;;5011748;28;20200;-49
2021/09/08 06:15:25;;;;;;;14.20;10.57;;;22.30;50.60;;;;;;5011954;28;20190;-47
2021/09/08 06:17:50;;;;;;;11.73;10.13;;;22.30;50.50;;;;;;5011166;28;20201;-46
2021/09/08 06:20:16;;;;;;;23.63;11.37;;;22.40;50.60;;;;;;5010240;28;20197;-44
2021/09/08 06:22:42;;;;;;;12.17;11.07;;;22.40;50.60;;;;;;5005756;28;20324;-45
2021/09/08 06:25:08;;;;;;;13.80;12.00;;;22.50;51.20;;;;;;5012667;28;20202;-45
2021/09/08 06:27:34;;;;;;;13.23;11.73;;;22.50;50.60;;;;;;5010378;28;20284;-45
2021/09/08 06:30:00;;;;;;;14.00;12.50;;;22.50;50.80;;;;;;5012542;28;20960;-46
2021/09/08 06:32:26;;;;;;;11.90;10.60;;;22.60;50.80;;;;;;5009842;28;20928;-47
2021/09/08 06:34:51;;;;;;;12.10;10.90;;;22.70;50.60;;;;;;5002174;28;20204;-48
2021/09/08 06:37:17;;;;;;;13.00;11.70;;;22.90;50.60;;;;;;5003351;28;20430;-49
2021/09/08 06:39:43;;;;;;;12.00;10.83;;;23.00;50.70;;;;;;5011220;28;20575;-48
2021/09/08 06:42:08;;;;;;;12.57;11.37;;;23.00;50.60;;;;;;5011403;28;20269;-48
2021/09/08 06:44:34;;;;;;;12.43;11.20;;;23.00;50.60;;;;;;5004443;28;20568;-49
2021/09/08 06:47:00;;;;;;;13.07;11.70;;;23.00;50.70;;;;;;4992755;28;20206;-49
2021/09/08 06:49:25;;;;;;;13.67;12.37;;;23.00;50.90;;;;;;5000412;28;20194;-48
2021/09/08 06:51:51;;;;;;;14.17;12.60;;;22.90;51.20;;;;;;5007325;28;20236;-48
2021/09/08 06:54:16;;;;;;;13.37;12.00;;;22.80;51.50;;;;;;5006231;28;20224;-48
2021/09/08 06:56:42;;;;;;;14.87;12.33;;;22.70;51.80;;;;;;5003514;28;20289;-54
2021/09/08 06:59:08;;;;;;;12.67;11.17;;;22.70;52.20;;;;;;5004935;28;20222;-48
2021/09/08 07:01:34;;;;;;;12.80;11.50;;;22.60;52.50;;;;;;5009193;28;20684;-48
2021/09/08 07:04:00;;;;;;;14.83;12.50;;;22.50;52.90;;;;;;5006740;28;20221;-48
2021/09/08 07:06:25;;;;;;;13.80;12.37;;;22.50;52.90;;;;;;4998875;28;20277;-49
2021/09/08 07:08:52;;;;;;;13.57;12.27;;;22.50;52.90;;;;;;5006720;28;20213;-50
2021/09/08 07:11:18;;;;;;;12.63;11.43;;;22.60;53.00;;;;;;5011397;28;20229;-50
2021/09/08 07:13:44;;;;;;;12.17;11.07;;;22.60;53.10;;;;;;5009836;28;20495;-48
2021/09/08 07:16:09;;;;;;;13.00;11.67;;;22.60;53.40;;;;;;5009908;28;20425;-52
2021/09/08 07:18:36;;;;;;;13.60;11.70;;;22.60;53.10;;;;;;5008889;28;20676;-52
2021/09/08 07:21:02;;;;;;;12.60;11.40;;;22.60;53.30;;;;;;5007837;28;20280;-52
2021/09/08 07:23:27;;;;;;;12.63;11.43;;;22.50;53.70;;;;;;5008580;28;20452;-52
2021/09/08 07:25:53;;;;;;;11.07;10.10;;;22.70;54.20;;;;;;5006321;28;20944;-49
2021/09/08 07:28:19;;;;;;;14.20;10.57;;;22.80;54.00;;;;;;5007992;28;20196;-48
2021/09/08 07:30:46;;;;;;;11.67;10.57;;;22.90;53.80;;;;;;5009736;28;20252;-48
2021/09/08 07:33:12;;;;;;;11.20;10.10;;;23.00;53.50;;;;;;5006612;28;20706;-49
2021/09/08 07:35:38;;;;;;;12.00;10.80;;;23.20;53.10;;;;;;5009966;28;20512;-49
2021/09/08 07:38:04;;;;;;;14.63;10.23;;;23.30;52.70;;;;;;5009045;28;20198;-50
2021/09/08 07:40:30;;;;;;;11.90;10.77;;;23.40;52.70;;;;;;5008992;28;20792;-49
2021/09/08 07:42:55;;;;;;;16.17;12.47;;;23.50;52.60;;;;;;5014815;28;20623;-53
2021/09/08 07:45:21;;;;;;;11.80;10.27;;;23.40;52.20;;;;;;5009663;28;20190;-47
2021/09/08 07:47:47;;;;;;;13.10;10.57;;;23.30;52.50;;;;;;5008247;28;20189;-46
2021/09/08 07:50:13;;;;;;;10.00;9.10;;;23.40;52.00;;;;;;4999490;28;20804;-47
2021/09/08 07:52:39;;;;;;;11.80;10.50;;;23.50;52.00;;;;;;5006888;28;20234;-47
2021/09/08 07:55:05;;;;;;;10.93;9.90;;;23.60;51.70;;;;;;5001711;28;20202;-46
2021/09/08 07:57:31;;;;;;;11.90;8.77;;;23.50;50.70;;;;;;5007302;28;20232;-47
2021/09/08 07:59:57;;;;;;;10.47;9.20;;;23.40;50.60;;;;;;5000722;28;20480;-51
2021/09/08 08:02:23;;;;;;;10.40;9.23;;;23.40;50.90;;;;;;5002749;28;20190;-49
2021/09/08 08:04:48;;;;;;;10.90;9.40;;;23.70;50.60;;;;;;5008141;28;20264;-46
2021/09/08 08:07:14;;;;;;;9.47;8.47;;;23.90;50.50;;;;;;5010207;28;20198;-49
2021/09/08 08:09:42;;;;;;;9.50;8.63;;;24.10;50.70;;;;;;5004073;28;20217;-49
2021/09/08 08:12:09;;;;;;;10.93;9.87;;;24.30;49.70;;;;;;5007084;28;20257;-48
2021/09/08 08:14:35;;;;;;;9.90;9.00;;;24.50;49.20;;;;;;5009588;28;20425;-47
2021/09/08 08:17:01;;;;;;;9.83;8.80;;;24.60;49.30;;;;;;5011798;28;20433;-47
2021/09/08 08:19:26;;;;;;;11.50;9.13;;;24.60;48.90;;;;;;5009586;28;20197;-47
2021/09/08 08:21:52;;;;;;;9.53;8.50;;;24.40;48.60;;;;;;5013806;28;20222;-48
2021/09/08 08:24:17;;;;;;;9.30;8.40;;;24.30;48.70;;;;;;5013227;28;20248;-48
2021/09/08 08:26:43;;;;;;;9.90;8.97;;;24.50;48.80;;;;;;4999677;28;20229;-47
2021/09/08 08:29:09;;;;;;;9.07;8.00;;;24.80;48.90;;;;;;4997863;28;20229;-49
2021/09/08 08:31:34;;;;;;;9.50;8.60;;;25.00;47.70;;;;;;5014104;28;20222;-49
2021/09/08 08:34:00;;;;;;;11.03;8.80;;;25.10;47.30;;;;;;5010699;28;20246;-47
2021/09/08 08:36:25;;;;;;;8.27;7.57;;;25.00;47.50;;;;;;5012954;28;20193;-47
2021/09/08 08:38:51;;;;;;;9.17;8.20;;;25.10;48.10;;;;;;5007742;28;20225;-50
2021/09/08 08:41:17;;;;;;;9.83;8.83;;;25.30;47.10;;;;;;5012932;28;20194;-48
2021/09/08 08:43:43;;;;;;;9.13;8.17;;;25.40;46.90;;;;;;5009769;28;20232;-47
2021/09/08 08:46:08;;;;;;;8.40;7.60;;;25.50;46.40;;;;;;5009108;28;20615;-47
2021/09/08 08:48:34;;;;;;;9.63;8.50;;;25.40;46.50;;;;;;5012201;28;20433;-47
2021/09/08 08:51:00;;;;;;;10.33;7.23;;;25.60;46.10;;;;;;5010713;28;20229;-47
2021/09/08 08:53:26;;;;;;;9.53;7.90;;;25.60;46.40;;;;;;5018899;28;20448;-48
2021/09/08 08:55:51;;;;;;;8.10;7.30;;;25.80;45.30;;;;;;5011182;28;20208;-47
2021/09/08 08:58:17;;;;;;;12.90;8.40;;;25.90;44.90;;;;;;5002106;28;20241;-47
2021/09/08 09:00:43;;;;;;;8.43;7.10;;;26.20;45.40;;;;;;5009819;28;20277;-47
2021/09/08 09:03:24;;;;;;;8.97;8.07;;;26.30;44.70;;;;;;5008939;28;20194;-47
2021/09/08 09:06:04;;;;;;;8.33;7.50;;;26.50;44.90;;;;;;5007350;28;20473;-46
2021/09/08 09:08:34;;;;;;;8.20;7.40;;;26.80;44.20;;;;;;5008408;28;20848;-47
2021/09/08 09:11:00;;;;;;;8.33;7.50;;;26.80;43.50;;;;;;5003653;28;20495;-47
2021/09/08 09:13:35;;;;;;;7.97;7.17;;;26.80;43.00;;;;;;5011220;28;20567;-47
2021/09/08 09:16:08;;;;;;;8.70;7.90;;;26.50;43.90;;;;;;5013120;28;20529;-50
2021/09/08 09:18:44;;;;;;;8.97;8.13;;;26.50;44.10;;;;;;4998343;28;20425;-47
2021/09/08 09:21:12;;;;;;;8.57;7.37;;;26.40;44.50;;;;;;5010478;28;20440;-48
2021/09/08 09:23:46;;;;;;;8.27;7.47;;;26.80;44.10;;;;;;5003561;28;20432;-49
2021/09/08 09:26:12;;;;;;;10.23;8.00;;;26.80;43.50;;;;;;5009687;28;20910;-47
2021/09/08 09:28:42;;;;;;;8.10;7.27;;;27.10;43.00;;;;;;5010331;28;20532;-48
2021/09/08 09:31:12;;;;;;;8.90;8.10;;;27.30;43.00;;;;;;5009963;28;20226;-48
2021/09/08 09:33:42;;;;;;;10.93;7.40;;;27.30;42.50;;;;;;5011779;28;20524;-49
2021/09/08 09:36:20;;;;;;;9.67;8.73;;;27.30;42.30;;;;;;5009757;28;20819;-51
2021/09/08 09:38:47;;;;;;;8.10;7.30;;;27.50;42.90;;;;;;5000247;28;20434;-49
2021/09/08 09:41:15;;;;;;;9.90;8.00;;;27.70;42.20;;;;;;5003193;28;20459;-49
2021/09/08 09:43:42;;;;;;;9.70;7.77;;;27.80;41.80;;;;;;4998815;28;20976;-51
2021/09/08 09:46:08;;;;;;;8.47;7.57;;;28.00;41.50;;;;;;5007269;28;20433;-53
2021/09/08 09:48:33;;;;;;;9.13;7.40;;;28.00;41.60;;;;;;5010385;28;20439;-47
2021/09/08 09:51:10;;;;;;;9.23;7.53;;;28.20;41.20;;;;;;5015416;28;20316;-46
2021/09/08 09:53:35;;;;;;;8.43;7.63;;;28.40;40.70;;;;;;5011497;28;20204;-52
2021/09/08 09:56:01;;;;;;;7.97;7.13;;;28.40;40.90;;;;;;5011194;28;20808;-47
2021/09/08 09:58:27;;;;;;;9.50;8.03;;;28.40;40.30;;;;;;5011205;28;20237;-48
2021/09/08 10:00:53;;;;;;;8.23;7.53;;;28.40;41.10;;;;;;5012326;28;20225;-50
2021/09/08 10:03:23;;;;;;;8.57;7.77;;;28.50;40.70;;;;;;5011221;28;20658;-49
2021/09/08 10:05:49;;;;;;;10.00;6.70;;;28.70;40.50;;;;;;5012229;28;20445;-50
2021/09/08 10:08:19;;;;;;;10.10;7.40;;;28.50;40.20;;;;;;5003010;28;20479;-52
2021/09/08 10:10:47;;;;;;;8.33;7.50;;;28.70;38.80;;;;;;4998485;28;20573;-47
2021/09/08 10:13:23;;;;;;;9.30;7.70;;;28.60;39.50;;;;;;5011161;28;20436;-47
2021/09/08 10:15:51;;;;;;;8.07;7.30;;;28.60;38.80;;;;;;5011531;28;20464;-52
2021/09/08 10:18:25;;;;;;;7.80;7.10;;;28.10;39.50;;;;;;5001431;28;20433;-52
2021/09/08 10:21:02;;;;;;;9.17;7.40;;;28.00;40.00;;;;;;5000299;28;20957;-51
2021/09/08 10:23:31;;;;;;;10.23;7.07;;;28.40;39.10;;;;;;5009451;28;20433;-48
2021/09/08 10:25:57;;;;;;;16.57;6.80;;;28.80;38.90;;;;;;5006575;28;20433;-49
2021/09/08 10:28:26;;;;;;;8.80;7.03;;;29.00;38.80;;;;;;5010657;28;20532;-47
2021/09/08 10:30:52;;;;;;;12.23;7.37;;;29.20;37.90;;;;;;5009975;28;20579;-48
2021/09/08 10:33:18;;;;;;;8.50;7.60;;;29.20;38.30;;;;;;5008630;28;20433;-46
2021/09/08 10:35:44;;;;;;;8.30;7.60;;;29.10;38.00;;;;;;5009619;28;20444;-50
2021/09/08 10:38:19;;;;;;;7.60;7.00;;;29.40;38.00;;;;;;5009789;28;20917;-47
2021/09/08 10:40:47;;;;;;;8.20;7.23;;;29.70;37.70;;;;;;4999718;28;20452;-50
2021/09/08 10:43:14;;;;;;;7.50;6.80;;;29.90;37.50;;;;;;5007529;28;20442;-46
2021/09/08 10:45:53;;;;;;;8.20;7.20;;;29.60;37.40;;;;;;5008447;28;20932;-45
2021/09/08 10:48:37;;;;;;;11.73;7.37;;;29.90;37.40;;;;;;5008408;28;20797;-46
2021/09/08 10:51:04;;;;;;;9.03;8.13;;;30.50;37.60;;;;;;5011585;28;20480;-46
2021/09/08 10:53:32;;;;;;;8.40;7.70;;;30.70;35.80;;;;;;5003654;28;20437;-46
2021/09/08 10:55:58;;;;;;;7.30;6.60;;;31.00;35.60;;;;;;5008177;28;21067;-48
2021/09/08 10:58:44;;;;;;;9.93;7.30;;;31.30;35.40;;;;;;5009721;28;20483;-47
2021/09/08 11:01:15;;;;;;;8.30;6.13;;;31.70;35.10;;;;;;5010177;28;20487;-48
2021/09/08 11:03:43;;;;;;;7.90;7.30;;;32.10;34.50;;;;;;5010318;28;20568;-47
2021/09/08 11:06:08;;;;;;;8.47;7.57;;;32.00;33.50;;;;;;4996672;28;20768;-47
2021/09/08 11:08:34;;;;;;;8.10;7.40;;;32.00;34.20;;;;;;5007681;28;20440;-47
2021/09/08 11:11:19;;;;;;;7.50;6.90;;;32.20;34.30;;;;;;5009566;28;20260;-47
2021/09/08 11:13:54;;;;;;;7.37;6.67;;;32.20;33.90;;;;;;5005250;28;20198;-46
2021/09/08 11:16:31;;;;;;;7.70;7.07;;;32.10;34.30;;;;;;5008820;28;20429;-47
2021/09/08 11:18:59;;;;;;;8.03;7.33;;;32.50;33.60;;;;;;5006529;28;20438;-49
2021/09/08 11:21:33;;;;;;;8.57;7.00;;;32.90;33.40;;;;;;5011671;28;20828;-49
2021/09/08 11:24:04;;;;;;;7.40;6.80;;;32.50;32.00;;;;;;5003705;28;20465;-48
2021/09/08 11:26:32;;;;;;;7.13;6.37;;;32.30;33.30;;;;;;5007900;28;20930;-47
2021/09/08 11:29:12;;;;;;;7.43;6.73;;;32.10;33.40;;;;;;5008453;28;20495;-48
2021/09/08 11:31:41;;;;;;;8.00;7.20;;;32.00;33.40;;;;;;5008187;28;20496;-48
2021/09/08 11:34:26;;;;;;;7.63;6.93;;;31.90;33.70;;;;;;5009388;28;20491;-47
2021/09/08 11:36:53;;;;;;;8.17;7.37;;;32.40;33.30;;;;;;5003352;28;20514;-49
2021/09/08 11:39:21;;;;;;;8.00;7.40;;;32.30;33.20;;;;;;5009440;28;20425;-48
2021/09/08 11:41:58;;;;;;;7.67;7.03;;;32.70;32.70;;;;;;4993398;28;21117;-48
2021/09/08 11:44:25;;;;;;;8.20;7.40;;;32.60;32.00;;;;;;5005441;28;20440;-47
2021/09/08 11:46:50;;;;;;;7.43;6.73;;;32.80;32.50;;;;;;5009802;28;20441;-47
2021/09/08 11:49:16;;;;;;;7.97;7.00;;;33.20;32.60;;;;;;5009139;28;20754;-46
2021/09/08 11:51:44;;;;;;;7.10;6.47;;;33.60;31.90;;;;;;5009178;28;20621;-47
2021/09/08 11:54:23;;;;;;;8.87;6.87;;;33.80;31.50;;;;;;5007236;28;20194;-47
2021/09/08 11:56:56;;;;;;;8.03;7.23;;;34.10;31.20;;;;;;5008011;28;20445;-48
2021/09/08 11:59:35;;;;;;;8.90;8.10;;;34.30;31.50;;;;;;5005273;28;20552;-48
2021/09/08 12:02:03;;;;;;;7.90;7.20;;;34.10;31.60;;;;;;5006553;28;20558;-48
2021/09/08 12:04:29;;;;;;;7.83;7.17;;;34.20;31.00;;;;;;4998508;28;20431;-52
2021/09/08 12:07:00;;;;;;;7.67;7.07;;;34.10;31.10;;;;;;5005377;28;20448;-48
2021/09/08 12:09:38;;;;;;;7.70;7.00;;;33.40;31.70;;;;;;5005876;28;20449;-47
2021/09/08 12:12:04;;;;;;;8.90;6.70;;;33.80;32.20;;;;;;5008488;28;20516;-48
2021/09/08 12:14:32;;;;;;;8.80;7.73;;;33.80;32.20;;;;;;5004552;28;20432;-48
2021/09/08 12:17:01;;;;;;;9.47;7.13;;;34.30;31.80;;;;;;5008574;28;20452;-48
2021/09/08 12:19:30;;;;;;;8.43;7.73;;;34.40;30.40;;;;;;5001995;28;20435;-48
2021/09/08 12:22:11;;;;;;;7.00;6.50;;;34.30;30.90;;;;;;5000897;28;20556;-47
2021/09/08 12:24:50;;;;;;;6.90;6.40;;;34.50;31.00;;;;;;5005162;28;21053;-51
2021/09/08 12:27:35;;;;;;;7.47;6.77;;;34.80;30.90;;;;;;5008576;28;20436;-51
2021/09/08 12:30:09;;;;;;;7.87;7.20;;;35.10;30.80;;;;;;5007439;28;20482;-52
2021/09/08 12:33:07;;;;;;;6.87;6.37;;;35.40;29.50;;;;;;4999967;28;20457;-48
2021/09/08 12:35:39;;;;;;;8.43;6.63;;;35.60;29.70;;;;;;5006163;28;20511;-51